createdAt,value
2017-07-02T00:01:54.937Z,16.11
2017-07-02T00:04:27.301Z,16.11
2017-07-02T00:06:59.700Z,16.13
2017-07-02T00:09:32.148Z,16.09
2017-07-02T00:12:04.481Z,16.07
2017-07-02T00:14:36.717Z,16.06
2017-07-02T00:17:09.197Z,16.10
2017-07-02T00:19:41.586Z,16.07
2017-07-02T00:22:13.881Z,16.04
2017-07-02T00:24:46.209Z,16.00
2017-07-02T00:27:18.685Z,16.00
2017-07-02T00:29:51.045Z,16.00
2017-07-02T00:32:23.529Z,15.99
2017-07-02T00:34:56.056Z,15.95
2017-07-02T00:37:28.149Z,15.92
2017-07-02T00:40:00.477Z,15.84
2017-07-02T00:42:32.957Z,15.82
2017-07-02T00:45:05.268Z,15.79
2017-07-02T00:47:37.580Z,15.73
2017-07-02T00:50:10.017Z,15.70
2017-07-02T00:52:42.541Z,15.66
2017-07-02T00:55:14.961Z,15.60
2017-07-02T00:57:47.469Z,15.58
2017-07-02T01:00:19.848Z,15.55
2017-07-02T01:02:53.193Z,15.51
2017-07-02T01:05:25.511Z,15.53
2017-07-02T01:07:57.905Z,15.50
2017-07-02T01:10:30.342Z,15.49
2017-07-02T01:13:02.985Z,15.47
2017-07-02T01:15:35.201Z,15.45
2017-07-02T01:18:07.568Z,15.42
2017-07-02T01:20:40.147Z,15.39
2017-07-02T01:23:12.303Z,15.36
2017-07-02T01:25:44.540Z,15.31
2017-07-02T01:28:18.188Z,15.33
2017-07-02T01:30:50.424Z,15.43
2017-07-02T01:33:22.783Z,15.45
2017-07-02T01:35:55.055Z,15.47
2017-07-02T01:38:27.988Z,15.57
2017-07-02T01:40:59.916Z,15.55
2017-07-02T01:43:32.348Z,15.54
2017-07-02T01:46:05.517Z,15.54
2017-07-02T01:48:37.924Z,15.54
2017-07-02T01:51:10.341Z,15.58
2017-07-02T01:53:42.604Z,15.55
2017-07-02T01:56:14.943Z,15.62
2017-07-02T01:58:47.307Z,15.63
2017-07-02T02:01:31.972Z,15.70
2017-07-02T02:04:04.080Z,15.71
2017-07-02T02:06:36.441Z,15.70
2017-07-02T02:09:08.228Z,15.70
2017-07-02T02:11:40.584Z,15.66
2017-07-02T02:14:13.163Z,15.54
2017-07-02T02:16:45.460Z,15.50
2017-07-02T02:19:17.868Z,15.50
2017-07-02T02:21:50.264Z,15.58
2017-07-02T02:24:22.628Z,15.56
2017-07-02T02:26:54.962Z,15.52
2017-07-02T02:29:27.436Z,15.49
2017-07-02T02:31:59.824Z,15.49
2017-07-02T02:34:32.209Z,15.40
2017-07-02T02:37:04.656Z,15.47
2017-07-02T02:39:37.866Z,15.48
2017-07-02T02:42:10.343Z,15.48
2017-07-02T02:44:42.725Z,15.46
2017-07-02T02:47:15.068Z,15.47
2017-07-02T02:49:47.462Z,15.53
2017-07-02T02:52:19.861Z,15.50
2017-07-02T02:54:52.404Z,15.48
2017-07-02T02:57:24.429Z,15.39
2017-07-02T02:59:56.848Z,15.39
2017-07-02T03:02:29.187Z,15.27
2017-07-02T03:05:01.816Z,15.21
2017-07-02T03:07:33.872Z,15.18
2017-07-02T03:10:06.245Z,15.11
2017-07-02T03:12:38.588Z,15.06
2017-07-02T03:15:11.015Z,15.02
2017-07-02T03:17:43.443Z,15.06
2017-07-02T03:20:15.873Z,15.01
2017-07-02T03:22:48.225Z,14.99
2017-07-02T03:25:20.536Z,14.96
2017-07-02T03:27:53.817Z,15.03
2017-07-02T03:30:26.306Z,15.00
2017-07-02T03:32:58.724Z,14.94
2017-07-02T03:35:31.226Z,14.97
2017-07-02T03:38:03.136Z,15.02
2017-07-02T03:40:35.496Z,15.13
2017-07-02T03:43:07.816Z,15.21
2017-07-02T03:45:40.192Z,15.26
2017-07-02T03:48:12.792Z,15.31
2017-07-02T03:50:44.828Z,15.28
2017-07-02T03:53:17.216Z,15.39
2017-07-02T03:55:49.589Z,15.36
2017-07-02T03:58:22.068Z,15.40
2017-07-02T04:00:54.500Z,15.44
2017-07-02T04:03:27.361Z,15.61
2017-07-02T04:05:59.232Z,15.57
2017-07-02T04:08:32.526Z,15.77
2017-07-02T04:11:04.931Z,15.91
2017-07-02T04:13:37.349Z,16.00
2017-07-02T04:16:09.809Z,16.00
2017-07-02T04:18:42.314Z,15.87
2017-07-02T04:21:14.760Z,15.89
2017-07-02T04:23:47.209Z,15.87
2017-07-02T04:26:19.575Z,15.93
2017-07-02T04:28:52.059Z,16.09
2017-07-02T04:31:24.351Z,16.08
2017-07-02T04:33:56.691Z,16.20
2017-07-02T04:36:29.231Z,16.20
2017-07-02T04:39:01.462Z,16.15
2017-07-02T04:41:33.927Z,16.07
2017-07-02T04:44:06.168Z,16.24
2017-07-02T04:46:38.510Z,16.40
2017-07-02T04:49:11.260Z,16.42
2017-07-02T04:51:43.428Z,16.40
2017-07-02T04:54:15.832Z,16.40
2017-07-02T04:56:48.485Z,16.52
2017-07-02T04:59:20.625Z,16.64
2017-07-02T05:01:53.045Z,16.70
2017-07-02T05:04:25.404Z,16.83
2017-07-02T05:06:57.765Z,16.87
2017-07-02T05:09:30.081Z,16.87
2017-07-02T05:12:09.431Z,16.79
2017-07-02T05:14:41.841Z,16.64
2017-07-02T05:17:14.175Z,16.70
2017-07-02T05:19:46.695Z,16.73
2017-07-02T05:22:19.192Z,16.79
2017-07-02T05:24:52.135Z,16.76
2017-07-02T05:27:24.942Z,16.67
2017-07-02T05:29:57.421Z,16.76
2017-07-02T05:32:29.892Z,16.85
2017-07-02T05:35:02.268Z,17.11
2017-07-02T05:37:34.665Z,17.43
2017-07-02T05:40:07.430Z,17.64
2017-07-02T05:42:39.495Z,18.10
2017-07-02T05:45:11.839Z,18.54
2017-07-02T05:47:44.375Z,18.81
2017-07-02T05:50:16.604Z,18.80
2017-07-02T05:52:49.068Z,18.42
2017-07-02T05:55:21.561Z,18.37
2017-07-02T05:57:54.197Z,18.42
2017-07-02T06:00:26.732Z,18.05
2017-07-02T06:02:58.737Z,17.90
2017-07-02T06:05:31.162Z,17.75
2017-07-02T06:08:03.573Z,17.55
2017-07-02T06:10:35.888Z,17.47
2017-07-02T06:13:08.472Z,17.50
2017-07-02T06:15:41.045Z,17.56
2017-07-02T06:18:13.772Z,17.63
2017-07-02T06:20:45.848Z,17.79
2017-07-02T06:23:18.215Z,17.79
2017-07-02T06:25:50.653Z,17.75
2017-07-02T06:28:23.204Z,17.73
2017-07-02T06:30:55.421Z,17.69
2017-07-02T06:33:27.892Z,17.80
2017-07-02T06:36:00.261Z,17.76
2017-07-02T06:38:32.656Z,17.76
2017-07-02T06:41:05.640Z,17.88
2017-07-02T06:43:38.318Z,18.10
2017-07-02T06:46:10.679Z,18.18
2017-07-02T06:48:43.096Z,18.35
2017-07-02T06:51:16.305Z,18.44
2017-07-02T06:53:48.735Z,18.36
2017-07-02T06:56:21.112Z,18.39
2017-07-02T06:58:54.548Z,18.50
2017-07-02T07:01:26.883Z,18.73
2017-07-02T07:03:59.148Z,18.84
2017-07-02T07:06:31.604Z,18.94
2017-07-02T07:09:04.023Z,18.90
2017-07-02T07:11:36.560Z,18.89
2017-07-02T07:14:08.690Z,18.68
2017-07-02T07:16:41.111Z,18.76
2017-07-02T07:19:13.476Z,18.82
2017-07-02T07:21:45.836Z,18.75
2017-07-02T07:24:18.120Z,18.70
2017-07-02T07:26:50.679Z,18.66
2017-07-02T07:29:23.292Z,18.65
2017-07-02T07:31:55.449Z,18.60
2017-07-02T07:34:27.961Z,18.65
2017-07-02T07:37:00.387Z,18.71
2017-07-02T07:39:33.077Z,18.78
2017-07-02T07:42:05.241Z,18.82
2017-07-02T07:44:37.711Z,18.75
2017-07-02T07:47:10.028Z,19.00
2017-07-02T07:49:42.721Z,19.31
2017-07-02T07:52:14.820Z,19.58
2017-07-02T07:54:47.261Z,19.74
2017-07-02T07:57:19.790Z,19.75
2017-07-02T07:59:52.187Z,19.66
2017-07-02T08:02:24.637Z,19.71
2017-07-02T08:04:57.028Z,19.70
2017-07-02T08:07:29.484Z,19.53
2017-07-02T08:10:01.991Z,19.58
2017-07-02T08:12:34.291Z,19.46
2017-07-02T08:15:06.812Z,19.59
2017-07-02T08:17:40.239Z,19.52
2017-07-02T08:20:12.417Z,19.63
2017-07-02T08:22:45.174Z,19.68
2017-07-02T08:25:17.238Z,19.61
2017-07-02T08:27:51.212Z,19.65
2017-07-02T08:30:23.136Z,19.47
2017-07-02T08:32:55.585Z,19.46
2017-07-02T08:35:28.096Z,19.63
2017-07-02T08:38:00.413Z,19.44
2017-07-02T08:40:33.059Z,19.45
2017-07-02T08:43:05.215Z,19.36
2017-07-02T08:45:37.547Z,19.14
2017-07-02T08:48:10.007Z,19.23
2017-07-02T08:50:42.908Z,19.15
2017-07-02T08:53:14.771Z,18.93
2017-07-02T08:55:47.193Z,18.73
2017-07-02T08:58:19.544Z,18.81
2017-07-02T09:00:52.099Z,18.75
2017-07-02T09:03:31.393Z,18.46
2017-07-02T09:06:04.341Z,18.50
2017-07-02T09:08:36.092Z,18.60
2017-07-02T09:11:08.442Z,18.54
2017-07-02T09:13:40.719Z,18.54
2017-07-02T09:16:13.197Z,18.51
2017-07-02T09:18:45.441Z,18.55
2017-07-02T09:21:17.834Z,18.61
2017-07-02T09:23:50.155Z,18.54
2017-07-02T09:26:22.901Z,18.57
2017-07-02T09:28:55.005Z,18.54
2017-07-02T09:31:27.316Z,18.42
2017-07-02T09:34:00.121Z,18.38
2017-07-02T09:36:32.097Z,18.33
2017-07-02T09:39:04.454Z,18.30
2017-07-02T09:41:36.963Z,18.34
2017-07-02T09:44:09.227Z,18.21
2017-07-02T09:46:41.779Z,18.13
2017-07-02T09:49:14.075Z,18.04
2017-07-02T09:51:46.549Z,18.06
2017-07-02T09:54:18.896Z,17.97
2017-07-02T09:56:51.290Z,17.81
2017-07-02T09:59:23.577Z,17.77
2017-07-02T10:01:55.940Z,17.92
2017-07-02T10:04:28.317Z,18.02
2017-07-02T10:07:00.609Z,17.95
2017-07-02T10:09:33.823Z,17.77
2017-07-02T10:12:06.453Z,17.80
2017-07-02T10:14:39.949Z,17.69
2017-07-02T10:17:12.339Z,17.66
2017-07-02T10:19:44.701Z,17.71
2017-07-02T10:22:17.185Z,17.75
2017-07-02T10:24:50.587Z,17.82
2017-07-02T10:27:23.893Z,17.86
2017-07-02T10:29:56.416Z,17.82
2017-07-02T10:32:28.940Z,17.64
2017-07-02T10:35:01.256Z,17.68
2017-07-02T10:37:33.789Z,17.84
2017-07-02T10:40:06.073Z,17.86
2017-07-02T10:42:38.537Z,17.91
2017-07-02T10:45:10.880Z,18.01
2017-07-02T10:47:43.264Z,18.06
2017-07-02T10:50:15.617Z,18.05
2017-07-02T10:52:47.919Z,18.07
2017-07-02T10:55:20.272Z,17.97
2017-07-02T10:57:52.657Z,17.96
2017-07-02T11:00:25.157Z,17.91
2017-07-02T11:02:57.573Z,17.92
2017-07-02T11:05:29.945Z,17.87
2017-07-02T11:08:02.257Z,17.87
2017-07-02T11:10:34.854Z,18.03
2017-07-02T11:13:07.302Z,18.10
2017-07-02T11:15:39.536Z,18.33
2017-07-02T11:18:11.857Z,18.61
2017-07-02T11:20:44.344Z,18.91
2017-07-02T11:23:16.755Z,19.12
2017-07-02T11:25:49.092Z,19.25
2017-07-02T11:28:21.558Z,19.44
2017-07-02T11:30:53.944Z,19.73
2017-07-02T11:33:26.265Z,20.05
2017-07-02T11:35:58.856Z,20.26
2017-07-02T11:38:31.158Z,20.44
2017-07-02T11:41:03.887Z,20.80
2017-07-02T11:43:36.041Z,20.92
2017-07-02T11:46:08.366Z,20.92
2017-07-02T11:48:40.728Z,21.00
2017-07-02T11:51:13.101Z,20.91
2017-07-02T11:53:46.344Z,20.63
2017-07-02T11:56:19.213Z,20.77
2017-07-02T11:58:51.177Z,20.76
2017-07-02T12:01:23.613Z,20.65
2017-07-02T12:03:56.009Z,20.68
2017-07-02T12:06:28.312Z,20.75
2017-07-02T12:09:00.657Z,20.94
2017-07-02T12:11:33.315Z,20.94
2017-07-02T12:14:05.889Z,21.09
2017-07-02T12:16:37.896Z,21.06
2017-07-02T12:19:10.157Z,21.19
2017-07-02T12:21:42.464Z,21.18
2017-07-02T12:24:14.828Z,21.39
2017-07-02T12:26:47.239Z,21.47
2017-07-02T12:29:20.612Z,21.81
2017-07-02T12:31:53.000Z,21.97
2017-07-02T12:34:25.599Z,21.81
2017-07-02T12:36:57.860Z,22.04
2017-07-02T12:39:30.252Z,22.13
2017-07-02T12:42:02.773Z,22.34
2017-07-02T12:44:35.141Z,22.75
2017-07-02T12:47:07.615Z,22.89
2017-07-02T12:49:39.971Z,22.84
2017-07-02T12:52:12.339Z,22.85
2017-07-02T12:54:44.712Z,23.39
2017-07-02T12:57:17.090Z,23.60
2017-07-02T12:59:49.343Z,23.59
2017-07-02T13:02:21.688Z,24.10
2017-07-02T13:04:54.207Z,24.31
2017-07-02T13:07:26.661Z,24.00
2017-07-02T13:09:59.035Z,23.96
2017-07-02T13:12:31.280Z,23.74
2017-07-02T13:15:05.178Z,23.46
2017-07-02T13:17:38.006Z,23.35
2017-07-02T13:20:10.312Z,23.05
2017-07-02T13:22:42.716Z,22.86
2017-07-02T13:25:15.116Z,22.78
2017-07-02T13:27:47.565Z,22.73
2017-07-02T13:30:19.901Z,23.00
2017-07-02T13:32:52.270Z,23.73
2017-07-02T13:35:24.660Z,24.02
2017-07-02T13:37:57.953Z,24.07
2017-07-02T13:40:30.468Z,24.33
2017-07-02T13:43:02.864Z,24.53
2017-07-02T13:45:35.178Z,24.88
2017-07-02T13:48:07.532Z,24.88
2017-07-02T13:50:39.929Z,24.56
2017-07-02T13:53:12.284Z,24.57
2017-07-02T13:55:44.731Z,24.64
2017-07-02T13:58:17.121Z,24.74
2017-07-02T14:00:49.471Z,24.75
2017-07-02T14:03:21.847Z,24.69
2017-07-02T14:05:54.345Z,24.77
2017-07-02T14:08:26.617Z,24.97
2017-07-02T14:10:59.267Z,25.21
2017-07-02T14:13:31.644Z,25.33
2017-07-02T14:16:04.683Z,25.24
2017-07-02T14:18:37.105Z,25.11
2017-07-02T14:21:09.449Z,25.10
2017-07-02T14:23:41.840Z,24.88
2017-07-02T14:26:14.559Z,24.38
2017-07-02T14:28:46.636Z,24.10
2017-07-02T14:31:19.059Z,24.30
2017-07-02T14:33:51.778Z,24.41
2017-07-02T14:36:23.741Z,24.60
2017-07-02T14:38:56.177Z,24.69
2017-07-02T14:41:28.516Z,24.61
2017-07-02T14:44:00.865Z,24.50
2017-07-02T14:46:33.243Z,24.48
2017-07-02T14:49:05.587Z,24.19
2017-07-02T14:51:38.079Z,23.99
2017-07-02T14:54:10.325Z,23.94
2017-07-02T14:56:42.636Z,23.94
2017-07-02T14:59:15.058Z,23.87
2017-07-02T15:02:02.299Z,23.88
2017-07-02T15:04:35.092Z,24.10
2017-07-02T15:07:07.526Z,24.30
2017-07-02T15:09:40.041Z,24.28
2017-07-02T15:12:12.356Z,24.10
2017-07-02T15:14:45.207Z,23.98
2017-07-02T15:17:19.306Z,23.94
2017-07-02T15:19:53.188Z,23.86
2017-07-02T15:22:26.999Z,23.87
2017-07-02T15:24:59.793Z,23.88
2017-07-02T15:27:32.591Z,23.93
2017-07-02T15:30:04.649Z,23.59
2017-07-02T15:32:38.091Z,23.60
2017-07-02T15:35:10.446Z,23.66
2017-07-02T15:37:42.882Z,23.67
2017-07-02T15:40:15.225Z,23.71
2017-07-02T15:42:47.573Z,23.70
2017-07-02T15:45:19.916Z,23.50
2017-07-02T15:47:52.996Z,23.46
2017-07-02T15:50:26.681Z,23.50
2017-07-02T15:52:59.216Z,23.50
2017-07-02T15:55:31.504Z,23.31
2017-07-02T15:58:03.992Z,23.28
2017-07-02T16:00:36.201Z,23.33
2017-07-02T16:03:08.997Z,23.33
2017-07-02T16:05:41.196Z,23.35
2017-07-02T16:08:13.659Z,23.21
2017-07-02T16:10:45.936Z,23.10
2017-07-02T16:13:18.394Z,22.94
2017-07-02T16:15:50.844Z,22.91
2017-07-02T16:18:23.180Z,22.88
2017-07-02T16:20:55.700Z,22.90
2017-07-02T16:23:29.112Z,22.90
2017-07-02T16:26:01.465Z,22.91
2017-07-02T16:28:33.940Z,22.59
2017-07-02T16:31:06.384Z,22.49
2017-07-02T16:33:39.075Z,22.47
2017-07-02T16:36:10.968Z,22.40
2017-07-02T16:38:43.507Z,22.30
2017-07-02T16:41:15.681Z,22.33
2017-07-02T16:43:48.068Z,22.40
2017-07-02T16:46:20.461Z,22.58
2017-07-02T16:48:53.805Z,22.74
2017-07-02T16:51:26.436Z,22.78
2017-07-02T16:53:58.744Z,22.79
2017-07-02T16:56:31.195Z,22.76
2017-07-02T16:59:03.669Z,22.73
2017-07-02T17:01:36.225Z,22.61
2017-07-02T17:04:08.603Z,22.51
2017-07-02T17:06:40.942Z,22.32
2017-07-02T17:09:13.341Z,22.21
2017-07-02T17:11:45.690Z,22.07
2017-07-02T17:14:18.132Z,21.85
2017-07-02T17:16:51.051Z,21.90
2017-07-02T17:19:22.787Z,21.97
2017-07-02T17:21:55.185Z,22.04
2017-07-02T17:24:27.715Z,22.11
2017-07-02T17:27:00.012Z,22.15
2017-07-02T17:29:32.692Z,22.03
2017-07-02T17:32:04.678Z,21.88
2017-07-02T17:34:37.488Z,21.77
2017-07-02T17:37:09.634Z,21.65
2017-07-02T17:39:42.367Z,21.49
2017-07-02T17:42:14.314Z,21.39
2017-07-02T17:44:46.656Z,21.26
2017-07-02T17:47:19.101Z,21.19
2017-07-02T17:49:51.377Z,21.15
2017-07-02T17:52:24.252Z,21.09
2017-07-02T17:54:56.115Z,21.07
2017-07-02T17:57:28.557Z,21.05
2017-07-02T18:00:00.944Z,20.96
2017-07-02T18:02:33.237Z,20.90
2017-07-02T18:05:05.524Z,20.84
2017-07-02T18:07:38.436Z,20.84
2017-07-02T18:10:10.556Z,20.75
2017-07-02T18:12:42.906Z,20.67
2017-07-02T18:15:15.340Z,20.67
2017-07-02T18:17:48.198Z,20.62
2017-07-02T18:20:20.263Z,20.60
2017-07-02T18:22:52.583Z,20.50
2017-07-02T18:25:26.630Z,20.43
2017-07-02T18:27:59.364Z,20.35
2017-07-02T18:30:31.685Z,20.22
2017-07-02T18:33:04.126Z,20.17
2017-07-02T18:35:36.673Z,20.03
2017-07-02T18:38:09.205Z,19.90
2017-07-02T18:40:41.779Z,19.78
2017-07-02T18:43:13.864Z,19.65
2017-07-02T18:45:46.544Z,19.55
2017-07-02T18:48:18.951Z,19.49
2017-07-02T18:50:51.355Z,19.39
2017-07-02T18:53:23.724Z,19.34
2017-07-02T18:55:56.146Z,19.27
2017-07-02T18:58:28.482Z,19.17
2017-07-02T19:01:00.847Z,19.10
2017-07-02T19:03:33.264Z,19.05
2017-07-02T19:06:05.631Z,18.95
2017-07-02T19:08:39.628Z,18.88
2017-07-02T19:11:11.445Z,18.75
2017-07-02T19:13:43.964Z,18.66
2017-07-02T19:16:16.400Z,18.61
2017-07-02T19:18:49.852Z,18.50
2017-07-02T19:21:22.428Z,18.43
2017-07-02T19:23:54.638Z,18.36
2017-07-02T19:26:27.185Z,18.27
2017-07-02T19:28:59.521Z,18.18
2017-07-02T19:31:33.026Z,18.13
2017-07-02T19:34:05.430Z,18.13
2017-07-02T19:36:37.873Z,18.12
2017-07-02T19:39:10.232Z,18.12
2017-07-02T19:41:43.139Z,18.14
2017-07-02T19:44:16.333Z,18.11
2017-07-02T19:46:49.020Z,18.07
2017-07-02T19:49:21.076Z,18.09
2017-07-02T19:51:53.556Z,18.09
2017-07-02T19:54:26.109Z,18.12
2017-07-02T19:56:58.547Z,18.13
2017-07-02T19:59:30.945Z,18.15
2017-07-02T20:02:03.392Z,18.14
2017-07-02T20:04:35.737Z,18.12
2017-07-02T20:07:08.216Z,18.09
2017-07-02T20:09:40.577Z,18.07
2017-07-02T20:12:13.080Z,18.01
2017-07-02T20:14:45.459Z,17.94
2017-07-02T20:17:17.817Z,17.87
2017-07-02T20:19:50.184Z,17.77
2017-07-02T20:22:22.672Z,17.68
2017-07-02T20:24:55.026Z,17.59
2017-07-02T20:27:27.420Z,17.49
2017-07-02T20:29:59.840Z,17.37
2017-07-02T20:32:32.377Z,17.33
2017-07-02T20:35:04.834Z,17.26
2017-07-02T20:37:37.051Z,17.20
2017-07-02T20:40:09.478Z,17.14
2017-07-02T20:42:41.817Z,17.01
2017-07-02T20:45:14.345Z,16.95
2017-07-02T20:47:46.825Z,16.90
2017-07-02T20:50:19.108Z,16.92
2017-07-02T20:52:51.528Z,16.95
2017-07-02T20:55:23.977Z,16.94
2017-07-02T20:57:56.305Z,16.95
2017-07-02T21:00:28.633Z,16.87
2017-07-02T21:03:01.066Z,16.87
2017-07-02T21:05:33.508Z,16.82
2017-07-02T21:08:06.163Z,16.77
2017-07-02T21:10:39.204Z,16.76
2017-07-02T21:13:11.760Z,16.73
2017-07-02T21:15:44.297Z,16.71
2017-07-02T21:18:17.531Z,16.67
2017-07-02T21:20:50.085Z,16.64
2017-07-02T21:23:22.537Z,16.66
2017-07-02T21:25:54.868Z,16.64
2017-07-02T21:28:27.351Z,16.63
2017-07-02T21:30:59.907Z,16.62
2017-07-02T21:33:32.088Z,16.61
2017-07-02T21:36:04.450Z,16.61
2017-07-02T21:38:37.715Z,16.58
2017-07-02T21:41:10.088Z,16.56
2017-07-02T21:43:42.524Z,16.54
2017-07-02T21:46:15.583Z,16.45
2017-07-02T21:48:48.301Z,16.40
2017-07-02T21:51:20.949Z,16.31
2017-07-02T21:53:53.087Z,16.24
2017-07-02T21:56:25.455Z,16.12
2017-07-02T21:58:57.984Z,16.05
2017-07-02T22:01:30.328Z,16.01
2017-07-02T22:04:02.708Z,15.90
2017-07-02T22:06:35.033Z,15.88
2017-07-02T22:09:07.493Z,15.81
2017-07-02T22:11:39.792Z,15.89
2017-07-02T22:14:12.237Z,15.92
2017-07-02T22:16:44.672Z,15.96
2017-07-02T22:19:16.985Z,15.98
2017-07-02T22:21:49.405Z,16.04
2017-07-02T22:24:21.818Z,16.08
2017-07-02T22:26:54.181Z,16.10
2017-07-02T22:29:26.856Z,16.09
2017-07-02T22:31:59.053Z,16.08
2017-07-02T22:34:31.520Z,16.10
2017-07-02T22:37:03.972Z,16.06
2017-07-02T22:39:36.417Z,16.05
2017-07-02T22:42:08.755Z,16.00
2017-07-02T22:44:41.901Z,15.95
2017-07-02T22:47:14.797Z,15.94
2017-07-02T22:49:46.945Z,15.94
2017-07-02T22:52:19.654Z,15.81
2017-07-02T22:54:52.805Z,15.73
2017-07-02T22:57:25.126Z,15.68
2017-07-02T22:59:57.925Z,15.58
2017-07-02T23:02:29.875Z,15.41
2017-07-02T23:05:02.268Z,15.31
2017-07-02T23:07:34.620Z,15.14
2017-07-02T23:10:06.988Z,15.07
2017-07-02T23:12:39.443Z,15.01
2017-07-02T23:15:11.960Z,14.87
2017-07-02T23:17:44.169Z,14.79
2017-07-02T23:20:16.586Z,14.72
2017-07-02T23:22:48.925Z,14.71
2017-07-02T23:25:21.269Z,14.62
2017-07-02T23:27:53.617Z,14.60
2017-07-02T23:30:25.992Z,14.57
2017-07-02T23:32:58.371Z,14.50
2017-07-02T23:35:30.823Z,14.47
2017-07-02T23:38:03.205Z,14.41
2017-07-02T23:40:35.519Z,14.37
2017-07-02T23:43:07.921Z,14.31
2017-07-02T23:45:40.397Z,14.24
2017-07-02T23:48:12.681Z,14.17
2017-07-02T23:50:45.176Z,14.12
2017-07-02T23:53:17.478Z,14.07
2017-07-02T23:55:49.821Z,14.00
2017-07-02T23:58:22.098Z,13.98
